Powassan, Canada
Current Conditions -  °F | °C
As of 11:00 AM on Thursday 18 Dec 2014 (Local Time) from CYYB Reporting Station
Light Snow Light Snow  
Wind Chill:   Ceiling: 700
Heat Index: 18°   Visibility: 12mi
Dew Point: 16°   Wind: 10mph
Humidity: 93%   Direction: 330°NNW
Pressure: 30.08"   Gusts: NA
Location:  46.08°N, 79.36°W
Report Text: CYYB 181600Z 33009KT 12SM -SN OVC007 M08/M09 A3008 RMK SC8 SLP212
Loading
Personal Weather Stations






























Interactive Weather Map New forecast layout! Learn more

10-Day Weather Forecast

Advertisements
Track Severe Weather on mobile